createdAt,value
2022-10-09T00:00:31.964Z,101351.31
2022-10-09T00:02:33.817Z,101353.75
2022-10-09T00:04:35.539Z,101350.91
2022-10-09T00:06:37.301Z,101352.94
2022-10-09T00:08:40.324Z,101357.53
2022-10-09T00:10:43.369Z,101366.31
2022-10-09T00:12:45.312Z,101371.16
2022-10-09T00:14:47.095Z,101371.03
2022-10-09T00:16:48.838Z,101371.28
2022-10-09T00:18:51.826Z,101366.47
2022-10-09T00:20:53.532Z,101370.94
2022-10-09T00:22:55.211Z,101375.16
2022-10-09T00:24:56.978Z,101372.41
2022-10-09T00:26:58.692Z,101388.28
2022-10-09T00:29:00.598Z,101385.75
2022-10-09T00:31:05.912Z,101389.13
2022-10-09T00:33:07.678Z,101393.34
2022-10-09T00:35:09.541Z,101395.16
2022-10-09T00:37:11.384Z,101388.53
2022-10-09T00:39:13.114Z,101389.13
2022-10-09T00:41:17.822Z,101390.09
2022-10-09T00:43:39.643Z,101390.31
2022-10-09T00:45:48.165Z,101393.97
2022-10-09T00:48:11.267Z,101394.91
2022-10-09T00:50:35.852Z,101397.81
2022-10-09T00:52:37.760Z,101392.72
2022-10-09T00:54:41.843Z,101409.34
2022-10-09T00:56:44.099Z,101412.47
2022-10-09T00:58:51.883Z,101405.38
2022-10-09T01:00:54.016Z,101413.94
2022-10-09T01:02:55.879Z,101399.72
2022-10-09T01:04:57.797Z,101416.56
2022-10-09T01:07:21.753Z,101416.47
2022-10-09T01:09:31.015Z,101423.31
2022-10-09T01:11:50.686Z,101428.59
2022-10-09T01:14:04.720Z,101414.28
2022-10-09T01:16:12.593Z,101420.44
2022-10-09T01:18:33.945Z,101433.16
2022-10-09T01:20:57.198Z,101429.91
2022-10-09T01:23:13.669Z,101437.13
2022-10-09T01:25:25.682Z,101438.69
2022-10-09T01:27:29.095Z,101436.88
2022-10-09T01:29:42.607Z,101430.25
2022-10-09T01:31:48.296Z,101435.81
2022-10-09T01:33:50.247Z,101439.25
2022-10-09T01:35:53.688Z,101435.31
2022-10-09T01:37:56.662Z,101435.66
2022-10-09T01:39:59.387Z,101439.63
2022-10-09T01:42:02.343Z,101445.16
2022-10-09T01:44:14.569Z,101441.44
2022-10-09T01:46:23.298Z,101448.50
2022-10-09T01:48:25.710Z,101454.41
2022-10-09T01:50:33.337Z,101449.03
2022-10-09T01:52:52.179Z,101442.88
2022-10-09T01:55:08.567Z,101449.13
2022-10-09T01:57:14.076Z,101456.44
2022-10-09T01:59:18.798Z,101457.41
2022-10-09T02:01:31.362Z,101453.91
2022-10-09T02:03:35.438Z,101450.41
2022-10-09T02:05:39.049Z,101454.97
2022-10-09T02:07:41.148Z,101448.47
2022-10-09T02:09:44.264Z,101466.22
2022-10-09T02:11:53.053Z,101456.72
2022-10-09T02:13:55.908Z,101462.84
2022-10-09T02:16:40.750Z,101467.84
2022-10-09T02:19:23.496Z,101468.19
2022-10-09T02:21:46.844Z,101472.00
2022-10-09T02:23:51.311Z,101477.81
2022-10-09T02:25:53.577Z,101477.66
2022-10-09T02:27:55.978Z,101483.44
2022-10-09T02:29:59.592Z,101471.91
2022-10-09T02:32:01.505Z,101489.22
2022-10-09T02:34:08.929Z,101488.84
2022-10-09T02:36:11.039Z,101474.72
2022-10-09T02:38:12.892Z,101487.16
2022-10-09T02:40:15.232Z,101493.28
2022-10-09T02:42:17.189Z,101477.19
2022-10-09T02:44:19.176Z,101498.69
2022-10-09T02:46:21.641Z,101497.59
2022-10-09T02:48:23.480Z,101502.50
2022-10-09T02:50:25.461Z,101507.50
2022-10-09T02:52:27.390Z,101502.09
2022-10-09T02:54:29.093Z,101503.22
2022-10-09T02:56:32.189Z,101506.44
2022-10-09T02:58:36.476Z,101501.53
2022-10-09T03:00:38.788Z,101508.03
2022-10-09T03:02:40.831Z,101517.00
2022-10-09T03:04:42.701Z,101520.09
2022-10-09T03:06:44.459Z,101523.91
2022-10-09T03:08:48.421Z,101529.09
2022-10-09T03:10:50.223Z,101528.13
2022-10-09T03:12:52.205Z,101525.19
2022-10-09T03:14:54.078Z,101533.03
2022-10-09T03:16:55.824Z,101539.56
2022-10-09T03:18:57.871Z,101542.44
2022-10-09T03:20:59.967Z,101542.94
2022-10-09T03:23:01.673Z,101539.38
2022-10-09T03:25:03.543Z,101547.78
2022-10-09T03:27:05.422Z,101548.22
2022-10-09T03:29:07.105Z,101548.38
2022-10-09T03:31:13.050Z,101533.31
2022-10-09T03:33:21.680Z,101558.66
2022-10-09T03:35:23.371Z,101552.97
2022-10-09T03:37:25.201Z,101560.06
2022-10-09T03:39:26.954Z,101565.25
2022-10-09T03:41:28.666Z,101573.47
2022-10-09T03:43:31.005Z,101570.28
2022-10-09T03:45:32.889Z,101572.59
2022-10-09T03:47:34.569Z,101573.47
2022-10-09T03:49:36.408Z,101581.53
2022-10-09T03:51:38.236Z,101591.59
2022-10-09T03:53:39.915Z,101587.91
2022-10-09T03:55:42.694Z,101589.81
2022-10-09T03:57:44.514Z,101584.75
2022-10-09T03:59:46.196Z,101584.88
2022-10-09T04:01:48.091Z,101594.34
2022-10-09T04:03:50.054Z,101592.25
2022-10-09T04:05:51.750Z,101591.03
2022-10-09T04:07:53.606Z,101591.88
2022-10-09T04:09:55.856Z,101590.97
2022-10-09T04:11:57.551Z,101598.09
2022-10-09T04:13:59.874Z,101587.38
2022-10-09T04:16:01.852Z,101595.44
2022-10-09T04:18:03.985Z,101596.25
2022-10-09T04:20:06.102Z,101601.34
2022-10-09T04:22:07.893Z,101604.44
2022-10-09T04:24:09.583Z,101610.00
2022-10-09T04:26:12.579Z,101609.56
2022-10-09T04:28:14.518Z,101607.84
2022-10-09T04:30:16.446Z,101612.09
2022-10-09T04:32:18.186Z,101613.41
2022-10-09T04:34:20.174Z,101604.81
2022-10-09T04:36:22.206Z,101620.13
2022-10-09T04:38:24.831Z,101622.78
2022-10-09T04:40:26.646Z,101631.94
2022-10-09T04:42:28.326Z,101623.22
2022-10-09T04:44:30.065Z,101634.47
2022-10-09T04:46:31.970Z,101621.53
2022-10-09T04:48:44.904Z,101635.53
2022-10-09T04:50:47.085Z,101629.09
2022-10-09T04:52:49.048Z,101635.59
2022-10-09T04:54:50.964Z,101638.34
2022-10-09T04:56:52.704Z,101649.19
2022-10-09T04:58:54.530Z,101630.94
2022-10-09T05:00:56.248Z,101657.53
2022-10-09T05:02:58.033Z,101665.09
2022-10-09T05:04:59.854Z,101661.59
2022-10-09T05:07:01.638Z,101668.41
2022-10-09T05:09:03.551Z,101677.72
2022-10-09T05:11:16.640Z,101683.38
2022-10-09T05:13:18.351Z,101678.84
2022-10-09T05:15:20.138Z,101687.06
2022-10-09T05:17:23.442Z,101684.06
2022-10-09T05:19:25.493Z,101688.56
2022-10-09T05:21:28.523Z,101685.59
2022-10-09T05:23:30.534Z,101693.75
2022-10-09T05:25:32.215Z,101689.53
2022-10-09T05:27:34.042Z,101696.06
2022-10-09T05:29:35.919Z,101695.28
2022-10-09T05:31:37.692Z,101698.31
2022-10-09T05:33:39.484Z,101701.72
2022-10-09T05:35:41.359Z,101705.44
2022-10-09T05:37:44.962Z,101704.16
2022-10-09T05:39:46.794Z,101712.69
2022-10-09T05:41:48.491Z,101719.78
2022-10-09T05:43:50.236Z,101718.84
2022-10-09T05:45:52.381Z,101714.41
2022-10-09T05:47:54.246Z,101718.34
2022-10-09T05:49:55.928Z,101720.53
2022-10-09T05:51:57.629Z,101720.25
2022-10-09T05:54:00.227Z,101722.25
2022-10-09T05:56:17.148Z,101726.03
2022-10-09T05:58:18.873Z,101733.75
2022-10-09T06:00:20.589Z,101728.47
2022-10-09T06:02:22.340Z,101732.91
2022-10-09T06:04:24.938Z,101734.34
2022-10-09T06:06:29.894Z,101736.59
2022-10-09T06:08:33.086Z,101733.19
2022-10-09T06:10:43.295Z,101734.91
2022-10-09T06:12:45.260Z,101749.44
2022-10-09T06:14:46.962Z,101748.78
2022-10-09T06:16:48.811Z,101748.91
2022-10-09T06:18:50.713Z,101744.06
2022-10-09T06:20:57.156Z,101757.25
2022-10-09T06:22:58.927Z,101759.47
2022-10-09T06:25:00.606Z,101742.47
2022-10-09T06:27:02.303Z,101766.81
2022-10-09T06:29:04.203Z,101761.22
2022-10-09T06:31:07.188Z,101775.91
2022-10-09T06:33:08.877Z,101770.72
2022-10-09T06:35:10.638Z,101775.34
2022-10-09T06:37:12.389Z,101775.13
2022-10-09T06:39:14.097Z,101777.13
2022-10-09T06:41:18.259Z,101784.97
2022-10-09T06:43:19.964Z,101778.94
2022-10-09T06:45:21.675Z,101794.16
2022-10-09T06:47:23.559Z,101800.84
2022-10-09T06:49:25.315Z,101788.81
2022-10-09T06:51:28.127Z,101797.25
2022-10-09T06:53:30.409Z,101797.16
2022-10-09T06:55:32.877Z,101805.63
2022-10-09T06:57:34.617Z,101798.19
2022-10-09T06:59:36.332Z,101805.41
2022-10-09T07:01:38.351Z,101815.91
2022-10-09T07:03:42.445Z,101813.41
2022-10-09T07:05:44.199Z,101818.63
2022-10-09T07:07:45.918Z,101820.53
2022-10-09T07:09:47.631Z,101822.44
2022-10-09T07:11:49.582Z,101832.31
2022-10-09T07:13:54.255Z,101821.84
2022-10-09T07:15:56.010Z,101832.75
2022-10-09T07:17:57.894Z,101829.69
2022-10-09T07:19:59.656Z,101844.06
2022-10-09T07:22:01.526Z,101840.66
2022-10-09T07:24:05.632Z,101837.44
2022-10-09T07:26:20.807Z,101844.84
2022-10-09T07:28:23.236Z,101837.63
2022-10-09T07:30:25.192Z,101844.28
2022-10-09T07:32:27.073Z,101859.50
2022-10-09T07:34:28.770Z,101854.13
2022-10-09T07:36:30.532Z,101853.03
2022-10-09T07:38:32.432Z,101857.06
2022-10-09T07:40:35.355Z,101857.75
2022-10-09T07:42:37.221Z,101849.66
2022-10-09T07:44:39.073Z,101859.72
2022-10-09T07:46:40.810Z,101854.28
2022-10-09T07:48:42.896Z,101872.91
2022-10-09T07:50:44.768Z,101865.34
2022-10-09T07:52:46.785Z,101874.81
2022-10-09T07:54:48.699Z,101880.47
2022-10-09T07:56:50.876Z,101880.13
2022-10-09T07:59:04.205Z,101883.72
2022-10-09T08:01:07.681Z,101879.94
2022-10-09T08:03:10.587Z,101878.50
2022-10-09T08:05:12.285Z,101883.78
2022-10-09T08:07:14.204Z,101883.34
2022-10-09T08:09:18.055Z,101886.72
2022-10-09T08:11:21.290Z,101890.81
2022-10-09T08:13:23.382Z,101890.25
2022-10-09T08:15:25.750Z,101890.25
2022-10-09T08:17:27.470Z,101885.03
2022-10-09T08:19:29.406Z,101892.69
2022-10-09T08:21:31.609Z,101897.41
2022-10-09T08:23:33.687Z,101892.63
2022-10-09T08:25:36.349Z,101900.22
2022-10-09T08:27:38.280Z,101904.06
2022-10-09T08:29:40.441Z,101903.19
2022-10-09T08:31:42.629Z,101917.72
2022-10-09T08:33:44.762Z,101904.34
2022-10-09T08:35:46.611Z,101914.38
2022-10-09T08:37:48.417Z,101919.41
2022-10-09T08:39:50.294Z,101923.84
2022-10-09T08:41:54.383Z,101914.09
2022-10-09T08:44:19.463Z,101923.31
2022-10-09T08:46:29.474Z,101914.94
2022-10-09T08:48:39.021Z,101925.31
2022-10-09T08:50:47.411Z,101921.41
2022-10-09T08:52:56.654Z,101934.31
2022-10-09T08:55:17.502Z,101925.81
2022-10-09T08:57:21.381Z,101937.63
2022-10-09T08:59:23.165Z,101935.56
2022-10-09T09:01:39.258Z,101938.75
2022-10-09T09:03:53.456Z,101939.34
2022-10-09T09:06:03.087Z,101947.19
2022-10-09T09:08:13.427Z,101939.81
2022-10-09T09:10:35.507Z,101947.63
2022-10-09T09:12:51.095Z,101947.91
2022-10-09T09:15:38.357Z,101944.06
2022-10-09T09:17:44.591Z,101949.16
2022-10-09T09:20:08.052Z,101953.72
2022-10-09T09:22:13.538Z,101950.72
2022-10-09T09:24:19.196Z,101954.00
2022-10-09T09:26:22.191Z,101951.34
2022-10-09T09:28:28.828Z,101950.63
2022-10-09T09:30:44.287Z,101959.53
2022-10-09T09:33:11.201Z,101964.88
2022-10-09T09:35:21.374Z,101959.28
2022-10-09T09:37:23.520Z,101959.44
2022-10-09T09:42:00.724Z,101970.75
2022-10-09T09:44:02.944Z,101970.66
2022-10-09T09:46:14.654Z,101978.13
2022-10-09T09:48:26.698Z,101983.34
2022-10-09T09:50:48.562Z,101971.97
2022-10-09T09:52:56.205Z,101957.72
2022-10-09T09:54:59.122Z,101975.78
2022-10-09T09:57:12.336Z,101969.78
2022-10-09T09:59:38.811Z,101977.88
2022-10-09T10:01:40.557Z,101982.72
2022-10-09T10:03:49.314Z,101976.31
2022-10-09T10:05:51.338Z,101977.13
2022-10-09T10:07:53.643Z,101987.78
2022-10-09T10:10:26.513Z,101974.88
2022-10-09T10:12:29.460Z,101984.38
2022-10-09T10:14:32.601Z,101975.22
2022-10-09T10:16:38.900Z,101985.22
2022-10-09T10:18:43.265Z,101984.03
2022-10-09T10:21:09.903Z,101985.59
2022-10-09T10:23:43.069Z,101992.63
2022-10-09T10:25:45.261Z,101999.84
2022-10-09T10:27:50.165Z,101994.16
2022-10-09T10:29:56.787Z,101991.50
2022-10-09T10:32:17.226Z,102000.31
2022-10-09T10:34:32.613Z,101998.41
2022-10-09T10:36:34.910Z,101999.84
2022-10-09T10:38:45.309Z,102009.66
2022-10-09T10:40:56.996Z,102008.28
2022-10-09T10:42:59.401Z,102003.34
2022-10-09T10:45:10.657Z,102000.91
2022-10-09T10:47:21.857Z,102007.22
2022-10-09T10:49:23.562Z,102005.28
2022-10-09T10:51:47.753Z,102000.72
2022-10-09T10:54:19.589Z,102003.25
2022-10-09T10:56:35.773Z,102004.94
2022-10-09T10:58:47.908Z,102004.75
2022-10-09T11:01:04.489Z,102010.09
2022-10-09T11:03:34.378Z,102007.19
2022-10-09T11:05:47.152Z,102007.66
2022-10-09T11:08:23.097Z,102012.59
2022-10-09T11:10:38.795Z,102008.81
2022-10-09T11:12:52.654Z,102003.41
2022-10-09T11:15:27.000Z,102003.38
2022-10-09T11:17:40.496Z,102002.50
2022-10-09T11:20:02.773Z,102004.22
2022-10-09T11:22:38.729Z,102001.44
2022-10-09T11:25:02.300Z,101999.91
2022-10-09T11:27:13.435Z,102001.66
2022-10-09T11:29:21.821Z,102001.22
2022-10-09T11:31:33.060Z,102000.44
2022-10-09T11:33:59.085Z,101998.22
2022-10-09T11:36:25.922Z,101996.19
2022-10-09T11:38:33.376Z,102001.88
2022-10-09T11:40:40.342Z,101996.69
2022-10-09T11:42:42.426Z,102007.97
2022-10-09T11:45:00.985Z,101995.22
2022-10-09T11:47:09.422Z,101995.09
2022-10-09T11:49:23.001Z,102003.84
2022-10-09T11:51:30.681Z,101999.31
2022-10-09T11:53:34.497Z,102001.31
2022-10-09T11:55:36.533Z,102000.13
2022-10-09T11:57:38.233Z,101992.31
2022-10-09T11:59:40.015Z,101997.47
2022-10-09T12:01:43.546Z,101998.31
2022-10-09T12:03:45.367Z,102002.81
2022-10-09T12:05:49.450Z,101998.91
2022-10-09T12:07:51.330Z,102000.63
2022-10-09T12:09:59.865Z,101991.38
2022-10-09T12:12:08.547Z,102003.00
2022-10-09T12:14:23.821Z,101998.53
2022-10-09T12:16:51.687Z,101999.38
2022-10-09T12:18:53.866Z,101993.19
2022-10-09T12:20:57.871Z,102001.81
2022-10-09T12:23:26.329Z,101998.88
2022-10-09T12:25:45.326Z,101999.56
2022-10-09T12:27:48.404Z,101996.13
2022-10-09T12:30:11.738Z,101996.44
2022-10-09T12:32:18.929Z,101999.50
2022-10-09T12:34:23.070Z,102000.59
2022-10-09T12:36:26.273Z,102004.94
2022-10-09T12:38:30.079Z,101999.38
2022-10-09T12:40:33.611Z,101996.00
2022-10-09T12:42:35.549Z,102005.47
2022-10-09T12:44:39.500Z,102003.97
2022-10-09T12:46:41.293Z,102005.38
2022-10-09T12:48:43.793Z,102009.63
2022-10-09T12:50:45.793Z,102014.31
2022-10-09T12:52:53.622Z,102005.28
2022-10-09T12:54:55.718Z,102008.38
2022-10-09T12:57:00.012Z,102001.72
2022-10-09T12:59:03.019Z,102005.22
2022-10-09T13:01:07.697Z,102002.56
2022-10-09T13:03:35.192Z,102006.09
2022-10-09T13:05:42.319Z,102008.72
2022-10-09T13:07:53.010Z,102003.78
2022-10-09T13:10:01.145Z,101996.09
2022-10-09T13:12:22.988Z,102002.69
2022-10-09T13:15:20.357Z,101998.47
2022-10-09T13:17:37.460Z,102000.59
2022-10-09T13:19:39.245Z,101999.09
2022-10-09T13:21:41.282Z,102007.59
2022-10-09T13:23:43.133Z,101997.13
2022-10-09T13:25:45.277Z,102003.63
2022-10-09T13:27:47.375Z,101999.94
2022-10-09T13:29:49.631Z,102003.91
2022-10-09T13:31:51.552Z,102001.50
2022-10-09T13:33:53.514Z,102004.19
2022-10-09T13:35:55.232Z,102007.28
2022-10-09T13:37:57.068Z,102002.75
2022-10-09T13:40:00.172Z,102000.03
2022-10-09T13:42:03.125Z,101993.53
2022-10-09T13:44:05.028Z,102003.22
2022-10-09T13:46:06.845Z,102001.31
2022-10-09T13:48:08.587Z,102004.75
2022-10-09T13:50:13.579Z,102001.44
2022-10-09T13:52:15.449Z,102006.38
2022-10-09T13:54:17.512Z,102005.47
2022-10-09T13:56:19.601Z,102003.59
2022-10-09T13:58:22.165Z,102002.63
2022-10-09T14:00:23.967Z,101996.06
2022-10-09T14:02:25.837Z,101997.69
2022-10-09T14:04:29.014Z,102001.13
2022-10-09T14:06:33.402Z,102002.34
2022-10-09T14:08:35.115Z,101998.84
2022-10-09T14:10:41.772Z,102005.84
2022-10-09T14:12:43.520Z,102000.09
2022-10-09T14:14:45.200Z,101994.38
2022-10-09T14:16:46.979Z,101994.34
2022-10-09T14:18:48.841Z,101996.28
2022-10-09T14:20:50.512Z,101998.16
2022-10-09T14:22:52.612Z,101995.50
2022-10-09T14:24:54.377Z,101996.81
2022-10-09T14:26:56.061Z,102000.47
2022-10-09T14:29:01.637Z,101988.59
2022-10-09T14:31:07.662Z,101988.94
2022-10-09T14:33:09.843Z,101994.38
2022-10-09T14:35:13.102Z,101989.06
2022-10-09T14:37:29.850Z,101996.03
2022-10-09T14:39:36.610Z,101990.16
2022-10-09T14:41:38.418Z,101990.28
2022-10-09T14:43:40.220Z,101991.63
2022-10-09T14:45:42.394Z,101989.19
2022-10-09T14:47:44.158Z,101985.94
2022-10-09T14:49:46.644Z,101987.00
2022-10-09T14:51:48.396Z,101984.25
2022-10-09T14:53:50.463Z,101973.25
2022-10-09T14:55:52.180Z,101977.84
2022-10-09T14:57:53.862Z,101984.69
2022-10-09T14:59:56.172Z,101979.75
2022-10-09T15:01:57.943Z,101981.16
2022-10-09T15:04:00.641Z,101983.81
2022-10-09T15:06:07.578Z,101980.00
2022-10-09T15:08:09.365Z,101978.06
2022-10-09T15:10:11.061Z,101979.75
2022-10-09T15:12:13.370Z,101984.25
2022-10-09T15:14:15.215Z,101974.56
2022-10-09T15:16:18.407Z,101988.72
2022-10-09T15:18:20.307Z,101980.00
2022-10-09T15:20:22.063Z,101983.38
2022-10-09T15:22:23.752Z,101981.91
2022-10-09T15:24:25.586Z,101983.59
2022-10-09T15:26:29.150Z,101986.88
2022-10-09T15:28:30.934Z,101980.00
2022-10-09T15:30:32.855Z,101982.88
2022-10-09T15:32:34.714Z,101976.13
2022-10-09T15:34:40.657Z,101978.34
2022-10-09T15:36:43.223Z,101979.63
2022-10-09T15:38:45.123Z,101981.72
2022-10-09T15:40:54.899Z,101976.28
2022-10-09T15:42:56.721Z,101975.94
2022-10-09T15:44:58.593Z,101958.69
2022-10-09T15:47:00.272Z,101978.88
2022-10-09T15:49:02.104Z,101986.34
2022-10-09T15:51:05.238Z,101985.00
2022-10-09T15:53:06.914Z,101982.72
2022-10-09T15:55:09.007Z,101987.81
2022-10-09T15:57:10.958Z,101989.94
2022-10-09T15:59:13.566Z,101977.97
2022-10-09T16:01:16.904Z,101987.28
2022-10-09T16:03:18.975Z,101987.88
2022-10-09T16:05:20.674Z,101991.31
2022-10-09T16:07:22.496Z,101996.47
2022-10-09T16:09:24.418Z,101995.47
2022-10-09T16:11:26.963Z,101996.53
2022-10-09T16:13:28.955Z,102004.16
2022-10-09T16:15:30.748Z,102002.44
2022-10-09T16:17:32.527Z,101997.00
2022-10-09T16:19:34.312Z,101998.09
2022-10-09T16:21:35.997Z,101998.75
2022-10-09T16:23:38.008Z,102005.97
2022-10-09T16:25:40.946Z,102010.25
2022-10-09T16:27:42.669Z,102014.59
2022-10-09T16:29:44.511Z,102013.25
2022-10-09T16:31:46.476Z,102020.97
2022-10-09T16:33:48.363Z,102016.22
2022-10-09T16:35:50.220Z,102023.00
2022-10-09T16:37:52.778Z,102028.25
2022-10-09T16:39:54.522Z,102029.97
2022-10-09T16:41:56.349Z,102022.22
2022-10-09T16:43:58.309Z,102025.94
2022-10-09T16:46:10.059Z,102024.97
2022-10-09T16:48:11.805Z,102022.75
2022-10-09T16:50:13.728Z,102023.44
2022-10-09T16:52:15.452Z,102020.81
2022-10-09T16:54:17.205Z,102026.94
2022-10-09T16:56:21.354Z,102024.06
2022-10-09T16:58:23.063Z,102012.25
2022-10-09T17:00:24.827Z,102011.91
2022-10-09T17:02:26.701Z,102027.88
2022-10-09T17:04:28.391Z,102028.19
2022-10-09T17:06:30.340Z,101986.94
2022-10-09T17:08:32.120Z,102028.03
2022-10-09T17:10:33.929Z,102027.31
2022-10-09T17:12:35.783Z,102021.59
2022-10-09T17:14:37.828Z,102033.00
2022-10-09T17:16:41.275Z,102037.25
2022-10-09T17:18:43.300Z,102043.03
2022-10-09T17:20:45.170Z,102041.81
2022-10-09T17:22:47.172Z,102045.66
2022-10-09T17:24:49.501Z,102045.88
2022-10-09T17:26:51.405Z,102045.19
2022-10-09T17:28:53.822Z,102048.78
2022-10-09T17:30:55.742Z,102046.63
2022-10-09T17:32:57.506Z,102045.69
2022-10-09T17:34:59.545Z,102048.78
2022-10-09T17:37:01.663Z,102048.63
2022-10-09T17:39:05.373Z,102052.47
2022-10-09T17:41:07.729Z,102055.47
2022-10-09T17:43:09.640Z,102055.03
2022-10-09T17:45:12.124Z,102043.78
2022-10-09T17:47:14.013Z,102037.66
2022-10-09T17:49:17.231Z,102053.03
2022-10-09T17:51:33.383Z,102056.13
2022-10-09T17:53:35.351Z,102054.81
2022-10-09T17:55:38.609Z,102039.16
2022-10-09T17:57:40.483Z,102049.31
2022-10-09T17:59:42.229Z,102052.56
2022-10-09T18:01:44.095Z,102055.75
2022-10-09T18:03:46.001Z,102052.53
2022-10-09T18:05:49.756Z,102049.41
2022-10-09T18:07:51.715Z,102055.31
2022-10-09T18:09:53.842Z,102059.53
2022-10-09T18:11:55.562Z,102057.16
2022-10-09T18:13:57.833Z,102044.50
2022-10-09T18:15:59.631Z,102056.97
2022-10-09T18:18:01.360Z,102064.66
2022-10-09T18:20:03.380Z,102061.63
2022-10-09T18:22:05.223Z,102024.06
2022-10-09T18:24:07.046Z,102049.81
2022-10-09T18:26:10.815Z,102070.06
2022-10-09T18:28:12.977Z,102067.66
2022-10-09T18:30:14.827Z,102060.53
2022-10-09T18:32:16.710Z,102055.41
2022-10-09T18:34:18.538Z,102049.28
2022-10-09T18:36:22.904Z,102065.53
2022-10-09T18:38:24.753Z,102059.84
2022-10-09T18:40:26.797Z,102063.25
2022-10-09T18:42:28.484Z,102060.03
2022-10-09T18:44:30.954Z,102069.63
2022-10-09T18:46:39.613Z,102062.84
2022-10-09T18:48:42.145Z,102069.38
2022-10-09T18:50:44.637Z,102068.88
2022-10-09T18:52:46.815Z,102044.84
2022-10-09T18:54:52.408Z,102060.78
2022-10-09T18:56:54.281Z,102058.28
2022-10-09T18:58:56.423Z,102065.56
2022-10-09T19:00:58.245Z,102061.13
2022-10-09T19:03:00.030Z,102063.69
2022-10-09T19:05:01.940Z,102065.13
2022-10-09T19:07:03.737Z,102063.63
2022-10-09T19:09:05.782Z,102047.88
2022-10-09T19:11:07.624Z,102071.72
2022-10-09T19:13:09.524Z,102062.47
2022-10-09T19:15:12.412Z,102060.59
2022-10-09T19:17:14.565Z,102054.91
2022-10-09T19:19:16.441Z,102047.34
2022-10-09T19:21:18.176Z,102070.44
2022-10-09T19:23:20.225Z,102068.72
2022-10-09T19:25:22.096Z,102071.78
2022-10-09T19:27:26.553Z,102071.41
2022-10-09T19:29:28.738Z,102075.94
2022-10-09T19:31:30.641Z,102069.91
2022-10-09T19:33:32.427Z,102068.00
2022-10-09T19:35:34.355Z,102069.44
2022-10-09T19:37:36.233Z,102083.31
2022-10-09T19:39:37.934Z,102092.59
2022-10-09T19:41:39.955Z,102091.53
2022-10-09T19:43:42.610Z,102087.38
2022-10-09T19:45:44.852Z,102090.13
2022-10-09T19:47:50.009Z,102085.22
2022-10-09T19:49:53.971Z,102092.94
2022-10-09T19:51:55.893Z,102094.25
2022-10-09T19:53:57.871Z,102098.22
2022-10-09T19:55:59.545Z,102096.91
2022-10-09T19:58:01.551Z,102095.72
2022-10-09T20:00:04.806Z,102095.78
2022-10-09T20:02:06.993Z,102093.94
2022-10-09T20:04:10.897Z,102101.75
2022-10-09T20:06:13.675Z,102095.97
2022-10-09T20:08:15.492Z,102105.31
2022-10-09T20:10:17.544Z,102099.75
2022-10-09T20:12:19.370Z,102104.84
2022-10-09T20:14:21.167Z,102101.97
2022-10-09T20:16:25.970Z,102103.06
2022-10-09T20:18:28.449Z,102091.19
2022-10-09T20:20:31.519Z,102104.94
2022-10-09T20:22:33.288Z,102104.22
2022-10-09T20:24:35.052Z,102095.00
2022-10-09T20:26:39.771Z,102102.34
2022-10-09T20:28:47.230Z,102098.88
2022-10-09T20:30:57.046Z,102107.22
2022-10-09T20:32:59.490Z,102105.16
2022-10-09T20:35:01.525Z,102108.25
2022-10-09T20:37:03.321Z,102103.91
2022-10-09T20:39:07.863Z,102102.44
2022-10-09T20:41:09.767Z,102104.69
2022-10-09T20:43:11.545Z,102102.28
2022-10-09T20:45:13.257Z,102103.97
2022-10-09T20:47:14.992Z,102103.06
2022-10-09T20:49:17.003Z,102092.47
2022-10-09T20:51:19.846Z,102094.31
2022-10-09T20:53:21.790Z,102092.75
2022-10-09T20:55:23.665Z,102093.84
2022-10-09T20:57:25.415Z,102102.59
2022-10-09T20:59:27.262Z,102102.06
2022-10-09T21:01:29.364Z,102101.81
2022-10-09T21:03:31.150Z,102107.31
2022-10-09T21:05:33.200Z,102101.50
2022-10-09T21:07:34.978Z,102098.00
2022-10-09T21:09:37.099Z,102099.47
2022-10-09T21:11:39.005Z,102092.28
2022-10-09T21:13:40.798Z,102103.16
2022-10-09T21:15:44.817Z,102106.56
2022-10-09T21:17:46.592Z,102100.69
2022-10-09T21:19:52.279Z,102096.31
2022-10-09T21:21:54.054Z,102097.84
2022-10-09T21:23:58.160Z,102106.91
2022-10-09T21:26:00.100Z,102098.25
2022-10-09T21:28:02.341Z,102098.19
2022-10-09T21:30:04.600Z,102101.25
2022-10-09T21:32:06.507Z,102099.47
2022-10-09T21:34:08.593Z,102080.81
2022-10-09T21:36:37.407Z,102105.97
2022-10-09T21:38:39.615Z,102099.13
2022-10-09T21:40:41.993Z,102102.78
2022-10-09T21:42:43.932Z,102105.97
2022-10-09T21:44:45.729Z,102104.56
2022-10-09T21:46:47.471Z,102101.38
2022-10-09T21:48:49.317Z,102101.31
2022-10-09T21:50:51.125Z,102105.31
2022-10-09T21:52:53.201Z,102105.47
2022-10-09T21:54:55.095Z,102099.66
2022-10-09T21:56:56.765Z,102097.78
2022-10-09T21:58:58.518Z,102096.88
2022-10-09T22:01:01.643Z,102099.13
2022-10-09T22:03:03.715Z,102094.66
2022-10-09T22:05:05.831Z,102093.25
2022-10-09T22:07:07.571Z,102095.94
2022-10-09T22:09:10.657Z,102090.56
2022-10-09T22:11:12.685Z,102094.56
2022-10-09T22:13:14.495Z,102086.59
2022-10-09T22:15:16.426Z,102091.78
2022-10-09T22:17:24.748Z,102095.16
2022-10-09T22:19:26.496Z,102086.75
2022-10-09T22:21:28.389Z,102090.59
2022-10-09T22:23:30.086Z,102094.56
2022-10-09T22:25:31.851Z,102091.31
2022-10-09T22:27:33.648Z,102092.00
2022-10-09T22:29:36.172Z,102088.69
2022-10-09T22:31:37.945Z,102091.66
2022-10-09T22:33:40.277Z,102093.09
2022-10-09T22:35:42.015Z,102091.09
2022-10-09T22:37:43.890Z,102092.09
2022-10-09T22:39:45.563Z,102080.25
2022-10-09T22:41:47.281Z,102077.75
2022-10-09T22:43:51.755Z,102083.06
2022-10-09T22:45:53.559Z,102088.75
2022-10-09T22:47:55.257Z,102084.00
2022-10-09T22:49:57.114Z,102085.56
2022-10-09T22:51:58.850Z,102087.25
2022-10-09T22:54:00.903Z,102086.47
2022-10-09T22:56:13.155Z,102090.75
2022-10-09T22:58:14.841Z,102088.38
2022-10-09T23:00:16.614Z,102085.63
2022-10-09T23:02:18.646Z,102087.41
2022-10-09T23:04:21.618Z,102086.97
2022-10-09T23:06:23.581Z,102094.78
2022-10-09T23:08:25.302Z,102090.75
2022-10-09T23:10:27.022Z,102084.16
2022-10-09T23:12:28.861Z,102094.13
2022-10-09T23:14:30.615Z,102093.16
2022-10-09T23:16:32.706Z,102087.97
2022-10-09T23:18:35.890Z,102086.41
2022-10-09T23:20:37.582Z,102095.78
2022-10-09T23:22:39.301Z,102100.03
2022-10-09T23:24:41.173Z,102098.03
2022-10-09T23:26:43.652Z,102094.38
2022-10-09T23:28:50.786Z,102092.66
2022-10-09T23:30:52.502Z,102094.56
2022-10-09T23:32:54.213Z,102093.50
2022-10-09T23:34:55.991Z,102088.94
2022-10-09T23:36:57.871Z,102100.16
2022-10-09T23:39:01.647Z,102088.03
2022-10-09T23:41:06.408Z,102091.56
2022-10-09T23:43:08.340Z,102081.06
2022-10-09T23:45:10.806Z,102090.28
2022-10-09T23:47:12.765Z,102088.38